Weather at Camping Pontbriand Water Aerodrome

Public forecast

Using degrees Celsius for public forecast. Weather courtesy of forecast.io.

Closest aviation weather report (METAR) to Camping Pontbriand Water Aerodrome

Closest report is Montreal International (Mirabel) Airport, 25.4 nm (47.0 km) SSW.

2024/05/20 00:00 (retrieved 51 minutes ago)

CYMX 200000Z 16003KT 45SM FEW050 21/14 A2992 RMK CU1 CU TR SLP136 DENSITY ALT 1000FT

Closest aviation forecast (TAF) to Camping Pontbriand Water Aerodrome

Closest forecast is Trois-Rivières Airport, 48.2 nm (89.3 km) ENE.

2024/05/19 20:00 (retrieved 5 hours ago)

TAF CYRQ 191940Z 1920/2008 15007KT P6SM BKN050 TEMPO 1920/1924 SCT050 FM200000 18005KT P6SM SKC FM200700 17005KT P6SM SCT080 RMK FCST BASED ON AUTO OBS NXT FCST BY 200200Z